sensor_id;sensor_type;location;lat;lon;timestamp;P1;durP1;ratioP1;P2;durP2;ratioP2
23716;SDS011;22094;52.130;5.598;2023-06-14T00:01:05;5.32;;;3.08;;
23716;SDS011;22094;52.130;5.598;2023-06-14T00:03:31;6.10;;;2.90;;
23716;SDS011;22094;52.130;5.598;2023-06-14T00:05:57;9.20;;;2.97;;
23716;SDS011;22094;52.130;5.598;2023-06-14T00:08:29;5.05;;;2.70;;
23716;SDS011;22094;52.130;5.598;2023-06-14T00:11:00;6.78;;;3.15;;
23716;SDS011;22094;52.130;5.598;2023-06-14T00:13:26;12.95;;;3.30;;
23716;SDS011;22094;52.130;5.598;2023-06-14T00:15:52;10.50;;;3.53;;
23716;SDS011;22094;52.130;5.598;2023-06-14T00:18:20;6.32;;;2.88;;
23716;SDS011;22094;52.130;5.598;2023-06-14T00:20:54;4.70;;;3.05;;
23716;SDS011;22094;52.130;5.598;2023-06-14T00:23:20;6.15;;;2.75;;
23716;SDS011;22094;52.130;5.598;2023-06-14T00:25:46;10.77;;;3.05;;
23716;SDS011;22094;52.130;5.598;2023-06-14T00:28:12;8.23;;;3.17;;
23716;SDS011;22094;52.130;5.598;2023-06-14T00:30:37;7.88;;;3.28;;
23716;SDS011;22094;52.130;5.598;2023-06-14T00:33:03;11.18;;;3.25;;
23716;SDS011;22094;52.130;5.598;2023-06-14T00:35:29;8.70;;;3.10;;
23716;SDS011;22094;52.130;5.598;2023-06-14T00:37:55;10.13;;;3.10;;
23716;SDS011;22094;52.130;5.598;2023-06-14T00:40:20;6.03;;;3.05;;
23716;SDS011;22094;52.130;5.598;2023-06-14T00:42:46;7.43;;;3.47;;
23716;SDS011;22094;52.130;5.598;2023-06-14T00:45:12;5.43;;;2.72;;
23716;SDS011;22094;52.130;5.598;2023-06-14T00:47:38;7.70;;;3.13;;
23716;SDS011;22094;52.130;5.598;2023-06-14T00:50:06;8.15;;;3.03;;
23716;SDS011;22094;52.130;5.598;2023-06-14T00:52:32;3.75;;;2.92;;
23716;SDS011;22094;52.130;5.598;2023-06-14T00:54:59;5.38;;;3.15;;
23716;SDS011;22094;52.130;5.598;2023-06-14T00:57:25;8.43;;;2.83;;
23716;SDS011;22094;52.130;5.598;2023-06-14T00:59:52;6.00;;;3.20;;
23716;SDS011;22094;52.130;5.598;2023-06-14T01:02:17;5.55;;;3.17;;
23716;SDS011;22094;52.130;5.598;2023-06-14T01:04:44;5.40;;;3.17;;
23716;SDS011;22094;52.130;5.598;2023-06-14T01:15:21;10.70;;;3.00;;
23716;SDS011;22094;52.130;5.598;2023-06-14T01:17:51;8.88;;;3.15;;
23716;SDS011;22094;52.130;5.598;2023-06-14T01:20:21;5.82;;;2.95;;
23716;SDS011;22094;52.130;5.598;2023-06-14T01:22:51;7.32;;;3.30;;
23716;SDS011;22094;52.130;5.598;2023-06-14T01:25:20;5.30;;;3.20;;
23716;SDS011;22094;52.130;5.598;2023-06-14T01:28:08;9.70;;;3.58;;
23716;SDS011;22094;52.130;5.598;2023-06-14T01:30:35;5.43;;;3.53;;
23716;SDS011;22094;52.130;5.598;2023-06-14T01:33:02;6.97;;;2.95;;
23716;SDS011;22094;52.130;5.598;2023-06-14T01:35:29;10.13;;;3.15;;
23716;SDS011;22094;52.130;5.598;2023-06-14T01:37:55;5.28;;;3.17;;
23716;SDS011;22094;52.130;5.598;2023-06-14T01:40:21;12.93;;;3.55;;
23716;SDS011;22094;52.130;5.598;2023-06-14T01:42:47;6.53;;;3.10;;
23716;SDS011;22094;52.130;5.598;2023-06-14T01:45:15;5.30;;;3.00;;
23716;SDS011;22094;52.130;5.598;2023-06-14T01:47:41;4.38;;;3.20;;
23716;SDS011;22094;52.130;5.598;2023-06-14T01:50:08;9.05;;;2.90;;
23716;SDS011;22094;52.130;5.598;2023-06-14T01:52:34;9.00;;;3.08;;
23716;SDS011;22094;52.130;5.598;2023-06-14T01:55:01;5.55;;;2.72;;
23716;SDS011;22094;52.130;5.598;2023-06-14T01:57:27;6.85;;;2.88;;
23716;SDS011;22094;52.130;5.598;2023-06-14T01:59:52;9.43;;;3.25;;
23716;SDS011;22094;52.130;5.598;2023-06-14T02:02:18;7.70;;;2.97;;
23716;SDS011;22094;52.130;5.598;2023-06-14T02:04:44;9.80;;;3.22;;
23716;SDS011;22094;52.130;5.598;2023-06-14T02:07:12;10.48;;;2.85;;
23716;SDS011;22094;52.130;5.598;2023-06-14T02:09:38;5.00;;;2.80;;
23716;SDS011;22094;52.130;5.598;2023-06-14T02:12:03;9.50;;;3.28;;
23716;SDS011;22094;52.130;5.598;2023-06-14T02:14:29;6.57;;;3.00;;
23716;SDS011;22094;52.130;5.598;2023-06-14T02:16:55;12.98;;;3.28;;
23716;SDS011;22094;52.130;5.598;2023-06-14T02:19:21;7.38;;;3.17;;
23716;SDS011;22094;52.130;5.598;2023-06-14T02:21:46;7.40;;;3.00;;
23716;SDS011;22094;52.130;5.598;2023-06-14T02:24:13;5.95;;;3.05;;
23716;SDS011;22094;52.130;5.598;2023-06-14T02:26:38;5.70;;;2.80;;
23716;SDS011;22094;52.130;5.598;2023-06-14T02:29:05;4.05;;;2.90;;
23716;SDS011;22094;52.130;5.598;2023-06-14T02:31:31;5.35;;;2.90;;
23716;SDS011;22094;52.130;5.598;2023-06-14T02:33:57;8.25;;;3.05;;
23716;SDS011;22094;52.130;5.598;2023-06-14T02:36:23;8.60;;;2.88;;
23716;SDS011;22094;52.130;5.598;2023-06-14T02:38:49;7.47;;;2.97;;
23716;SDS011;22094;52.130;5.598;2023-06-14T02:41:15;7.90;;;3.22;;
23716;SDS011;22094;52.130;5.598;2023-06-14T02:43:40;8.23;;;3.45;;
23716;SDS011;22094;52.130;5.598;2023-06-14T02:46:06;10.20;;;3.15;;
23716;SDS011;22094;52.130;5.598;2023-06-14T02:48:32;7.88;;;3.15;;
23716;SDS011;22094;52.130;5.598;2023-06-14T02:50:58;5.70;;;3.10;;
23716;SDS011;22094;52.130;5.598;2023-06-14T02:53:23;9.85;;;3.20;;
23716;SDS011;22094;52.130;5.598;2023-06-14T02:55:49;6.30;;;2.80;;
23716;SDS011;22094;52.130;5.598;2023-06-14T02:58:14;8.23;;;3.38;;
23716;SDS011;22094;52.130;5.598;2023-06-14T03:00:41;11.43;;;3.40;;
23716;SDS011;22094;52.130;5.598;2023-06-14T03:03:07;7.13;;;3.10;;
23716;SDS011;22094;52.130;5.598;2023-06-14T03:05:44;5.57;;;3.17;;
23716;SDS011;22094;52.130;5.598;2023-06-14T03:08:12;10.73;;;3.38;;
23716;SDS011;22094;52.130;5.598;2023-06-14T03:10:44;7.72;;;3.35;;
23716;SDS011;22094;52.130;5.598;2023-06-14T03:13:11;7.28;;;3.20;;
23716;SDS011;22094;52.130;5.598;2023-06-14T03:15:37;6.45;;;3.10;;
23716;SDS011;22094;52.130;5.598;2023-06-14T03:18:07;6.57;;;2.95;;
23716;SDS011;22094;52.130;5.598;2023-06-14T03:20:34;5.05;;;3.40;;
23716;SDS011;22094;52.130;5.598;2023-06-14T03:23:01;5.78;;;3.10;;
23716;SDS011;22094;52.130;5.598;2023-06-14T03:25:27;9.18;;;3.13;;
23716;SDS011;22094;52.130;5.598;2023-06-14T03:27:56;6.57;;;3.25;;
23716;SDS011;22094;52.130;5.598;2023-06-14T03:30:22;5.43;;;3.05;;
23716;SDS011;22094;52.130;5.598;2023-06-14T03:32:48;5.32;;;3.13;;
23716;SDS011;22094;52.130;5.598;2023-06-14T03:35:13;6.93;;;3.10;;
23716;SDS011;22094;52.130;5.598;2023-06-14T03:37:46;10.20;;;3.20;;
23716;SDS011;22094;52.130;5.598;2023-06-14T03:40:12;6.75;;;2.75;;
23716;SDS011;22094;52.130;5.598;2023-06-14T03:42:39;10.25;;;3.42;;
23716;SDS011;22094;52.130;5.598;2023-06-14T03:45:05;5.07;;;3.15;;
23716;SDS011;22094;52.130;5.598;2023-06-14T03:47:31;8.60;;;3.80;;
23716;SDS011;22094;52.130;5.598;2023-06-14T03:49:57;7.00;;;3.20;;
23716;SDS011;22094;52.130;5.598;2023-06-14T03:52:22;9.77;;;3.33;;
23716;SDS011;22094;52.130;5.598;2023-06-14T03:54:48;7.22;;;3.03;;
23716;SDS011;22094;52.130;5.598;2023-06-14T03:57:14;5.25;;;3.10;;
23716;SDS011;22094;52.130;5.598;2023-06-14T03:59:40;6.00;;;3.08;;
23716;SDS011;22094;52.130;5.598;2023-06-14T04:02:06;8.95;;;3.05;;
23716;SDS011;22094;52.130;5.598;2023-06-14T04:04:34;4.95;;;3.30;;
23716;SDS011;22094;52.130;5.598;2023-06-14T04:07:00;5.28;;;3.08;;
23716;SDS011;22094;52.130;5.598;2023-06-14T04:09:28;4.20;;;3.08;;
23716;SDS011;22094;52.130;5.598;2023-06-14T04:11:55;7.80;;;3.33;;
23716;SDS011;22094;52.130;5.598;2023-06-14T04:14:20;7.05;;;3.10;;
23716;SDS011;22094;52.130;5.598;2023-06-14T04:16:47;6.82;;;3.13;;
23716;SDS011;22094;52.130;5.598;2023-06-14T04:19:14;6.35;;;3.30;;
23716;SDS011;22094;52.130;5.598;2023-06-14T04:21:42;11.00;;;3.10;;
23716;SDS011;22094;52.130;5.598;2023-06-14T04:24:08;6.35;;;3.10;;
23716;SDS011;22094;52.130;5.598;2023-06-14T04:26:41;6.30;;;2.90;;
23716;SDS011;22094;52.130;5.598;2023-06-14T04:29:09;7.72;;;3.08;;
23716;SDS011;22094;52.130;5.598;2023-06-14T04:31:44;6.13;;;2.90;;
23716;SDS011;22094;52.130;5.598;2023-06-14T04:34:10;7.80;;;3.10;;
23716;SDS011;22094;52.130;5.598;2023-06-14T04:36:41;7.60;;;3.30;;
23716;SDS011;22094;52.130;5.598;2023-06-14T04:39:17;5.85;;;3.30;;
23716;SDS011;22094;52.130;5.598;2023-06-14T04:41:43;7.43;;;2.55;;
23716;SDS011;22094;52.130;5.598;2023-06-14T04:44:09;5.38;;;3.10;;
23716;SDS011;22094;52.130;5.598;2023-06-14T04:46:35;9.10;;;3.20;;
23716;SDS011;22094;52.130;5.598;2023-06-14T04:49:10;4.28;;;2.95;;
23716;SDS011;22094;52.130;5.598;2023-06-14T04:51:40;6.05;;;3.25;;
23716;SDS011;22094;52.130;5.598;2023-06-14T04:54:07;4.15;;;3.10;;
23716;SDS011;22094;52.130;5.598;2023-06-14T04:56:35;6.00;;;3.03;;
23716;SDS011;22094;52.130;5.598;2023-06-14T04:59:02;7.18;;;3.20;;
23716;SDS011;22094;52.130;5.598;2023-06-14T05:01:29;7.80;;;3.30;;
23716;SDS011;22094;52.130;5.598;2023-06-14T05:03:56;5.65;;;3.40;;
23716;SDS011;22094;52.130;5.598;2023-06-14T05:06:22;5.80;;;3.33;;
23716;SDS011;22094;52.130;5.598;2023-06-14T05:08:48;8.50;;;3.10;;
23716;SDS011;22094;52.130;5.598;2023-06-14T05:11:14;5.97;;;3.15;;
23716;SDS011;22094;52.130;5.598;2023-06-14T05:13:39;5.43;;;3.42;;
23716;SDS011;22094;52.130;5.598;2023-06-14T05:16:06;7.68;;;3.10;;
23716;SDS011;22094;52.130;5.598;2023-06-14T05:18:32;5.70;;;2.90;;
23716;SDS011;22094;52.130;5.598;2023-06-14T05:21:00;8.75;;;3.10;;
23716;SDS011;22094;52.130;5.598;2023-06-14T05:23:26;5.35;;;3.20;;
23716;SDS011;22094;52.130;5.598;2023-06-14T05:25:52;3.28;;;2.72;;
23716;SDS011;22094;52.130;5.598;2023-06-14T05:28:18;7.13;;;3.13;;
23716;SDS011;22094;52.130;5.598;2023-06-14T05:30:43;9.00;;;3.15;;
23716;SDS011;22094;52.130;5.598;2023-06-14T05:33:09;6.40;;;3.10;;
23716;SDS011;22094;52.130;5.598;2023-06-14T05:35:34;6.93;;;2.97;;
23716;SDS011;22094;52.130;5.598;2023-06-14T05:38:00;6.80;;;3.85;;
23716;SDS011;22094;52.130;5.598;2023-06-14T05:40:26;7.20;;;3.15;;
23716;SDS011;22094;52.130;5.598;2023-06-14T05:42:51;7.40;;;5.13;;
23716;SDS011;22094;52.130;5.598;2023-06-14T05:45:17;9.85;;;5.25;;
23716;SDS011;22094;52.130;5.598;2023-06-14T05:47:43;9.52;;;6.07;;
23716;SDS011;22094;52.130;5.598;2023-06-14T05:50:08;9.23;;;3.90;;
23716;SDS011;22094;52.130;5.598;2023-06-14T05:52:34;10.05;;;5.00;;
23716;SDS011;22094;52.130;5.598;2023-06-14T05:55:02;6.80;;;5.88;;
23716;SDS011;22094;52.130;5.598;2023-06-14T05:57:28;7.68;;;4.63;;
23716;SDS011;22094;52.130;5.598;2023-06-14T05:59:53;6.22;;;3.63;;
23716;SDS011;22094;52.130;5.598;2023-06-14T06:02:19;6.95;;;3.17;;
23716;SDS011;22094;52.130;5.598;2023-06-14T06:04:45;10.05;;;6.63;;
23716;SDS011;22094;52.130;5.598;2023-06-14T06:07:10;9.85;;;6.43;;
23716;SDS011;22094;52.130;5.598;2023-06-14T06:09:36;6.88;;;3.70;;
23716;SDS011;22094;52.130;5.598;2023-06-14T06:12:02;11.20;;;5.68;;
23716;SDS011;22094;52.130;5.598;2023-06-14T06:14:31;8.95;;;4.15;;
23716;SDS011;22094;52.130;5.598;2023-06-14T06:16:56;7.75;;;2.97;;
23716;SDS011;22094;52.130;5.598;2023-06-14T06:19:22;7.75;;;3.45;;
23716;SDS011;22094;52.130;5.598;2023-06-14T06:21:48;7.30;;;2.95;;
23716;SDS011;22094;52.130;5.598;2023-06-14T06:24:14;11.45;;;4.47;;
23716;SDS011;22094;52.130;5.598;2023-06-14T06:26:40;5.57;;;4.63;;
23716;SDS011;22094;52.130;5.598;2023-06-14T06:29:06;10.57;;;6.15;;
23716;SDS011;22094;52.130;5.598;2023-06-14T06:31:32;9.40;;;5.10;;
23716;SDS011;22094;52.130;5.598;2023-06-14T06:33:57;5.30;;;4.45;;
23716;SDS011;22094;52.130;5.598;2023-06-14T06:36:23;6.03;;;2.78;;
23716;SDS011;22094;52.130;5.598;2023-06-14T06:38:49;8.10;;;5.18;;
23716;SDS011;22094;52.130;5.598;2023-06-14T06:41:15;5.68;;;3.80;;
23716;SDS011;22094;52.130;5.598;2023-06-14T06:43:41;7.38;;;4.70;;
23716;SDS011;22094;52.130;5.598;2023-06-14T06:46:07;10.32;;;5.28;;
23716;SDS011;22094;52.130;5.598;2023-06-14T06:48:33;7.47;;;3.25;;
23716;SDS011;22094;52.130;5.598;2023-06-14T06:50:58;9.00;;;2.75;;
23716;SDS011;22094;52.130;5.598;2023-06-14T06:53:24;4.93;;;2.65;;
23716;SDS011;22094;52.130;5.598;2023-06-14T06:55:50;6.10;;;2.78;;
23716;SDS011;22094;52.130;5.598;2023-06-14T06:58:16;6.78;;;2.67;;
23716;SDS011;22094;52.130;5.598;2023-06-14T07:00:42;5.38;;;3.10;;
23716;SDS011;22094;52.130;5.598;2023-06-14T07:03:07;8.07;;;3.60;;
23716;SDS011;22094;52.130;5.598;2023-06-14T07:05:34;10.65;;;4.57;;
23716;SDS011;22094;52.130;5.598;2023-06-14T07:08:00;6.07;;;4.30;;
23716;SDS011;22094;52.130;5.598;2023-06-14T07:10:26;3.88;;;3.10;;
23716;SDS011;22094;52.130;5.598;2023-06-14T07:12:51;4.88;;;2.70;;
23716;SDS011;22094;52.130;5.598;2023-06-14T07:15:17;6.00;;;2.50;;
23716;SDS011;22094;52.130;5.598;2023-06-14T07:17:43;5.72;;;2.40;;
23716;SDS011;22094;52.130;5.598;2023-06-14T07:20:10;7.55;;;2.42;;
23716;SDS011;22094;52.130;5.598;2023-06-14T07:22:40;3.85;;;2.45;;
23716;SDS011;22094;52.130;5.598;2023-06-14T07:25:08;3.97;;;3.22;;
23716;SDS011;22094;52.130;5.598;2023-06-14T07:27:34;6.68;;;3.53;;
23716;SDS011;22094;52.130;5.598;2023-06-14T07:29:59;4.63;;;2.70;;
23716;SDS011;22094;52.130;5.598;2023-06-14T07:32:25;3.97;;;2.30;;
23716;SDS011;22094;52.130;5.598;2023-06-14T07:34:51;7.70;;;4.18;;
23716;SDS011;22094;52.130;5.598;2023-06-14T07:37:17;9.23;;;4.35;;
23716;SDS011;22094;52.130;5.598;2023-06-14T07:39:43;5.85;;;4.30;;
23716;SDS011;22094;52.130;5.598;2023-06-14T07:42:09;8.35;;;2.58;;
23716;SDS011;22094;52.130;5.598;2023-06-14T07:44:35;7.57;;;4.88;;
23716;SDS011;22094;52.130;5.598;2023-06-14T07:47:01;7.10;;;3.38;;
23716;SDS011;22094;52.130;5.598;2023-06-14T07:49:27;5.60;;;2.40;;
23716;SDS011;22094;52.130;5.598;2023-06-14T07:51:52;4.57;;;1.95;;
23716;SDS011;22094;52.130;5.598;2023-06-14T07:54:19;4.38;;;1.90;;
23716;SDS011;22094;52.130;5.598;2023-06-14T07:56:49;2.50;;;1.77;;
23716;SDS011;22094;52.130;5.598;2023-06-14T07:59:15;3.38;;;1.63;;
23716;SDS011;22094;52.130;5.598;2023-06-14T08:01:42;7.13;;;1.90;;
23716;SDS011;22094;52.130;5.598;2023-06-14T08:04:12;5.47;;;1.63;;
23716;SDS011;22094;52.130;5.598;2023-06-14T08:06:38;3.15;;;1.65;;
23716;SDS011;22094;52.130;5.598;2023-06-14T08:09:04;4.72;;;1.50;;
23716;SDS011;22094;52.130;5.598;2023-06-14T08:11:30;4.45;;;1.90;;
23716;SDS011;22094;52.130;5.598;2023-06-14T08:13:56;2.97;;;1.48;;
23716;SDS011;22094;52.130;5.598;2023-06-14T08:16:22;4.22;;;1.60;;
23716;SDS011;22094;52.130;5.598;2023-06-14T08:18:48;3.17;;;1.58;;
23716;SDS011;22094;52.130;5.598;2023-06-14T08:21:15;2.20;;;1.38;;
23716;SDS011;22094;52.130;5.598;2023-06-14T08:23:41;4.70;;;1.70;;
23716;SDS011;22094;52.130;5.598;2023-06-14T08:26:08;4.05;;;1.50;;
23716;SDS011;22094;52.130;5.598;2023-06-14T08:28:34;4.57;;;1.48;;
23716;SDS011;22094;52.130;5.598;2023-06-14T08:31:00;3.80;;;1.60;;
23716;SDS011;22094;52.130;5.598;2023-06-14T08:33:26;2.05;;;1.42;;
23716;SDS011;22094;52.130;5.598;2023-06-14T08:35:52;1.80;;;1.48;;
23716;SDS011;22094;52.130;5.598;2023-06-14T08:38:18;3.75;;;2.90;;
23716;SDS011;22094;52.130;5.598;2023-06-14T08:40:45;5.20;;;2.63;;
23716;SDS011;22094;52.130;5.598;2023-06-14T08:43:15;5.25;;;3.33;;
23716;SDS011;22094;52.130;5.598;2023-06-14T08:45:41;4.38;;;1.70;;
23716;SDS011;22094;52.130;5.598;2023-06-14T08:48:07;6.55;;;1.80;;
23716;SDS011;22094;52.130;5.598;2023-06-14T08:50:34;3.30;;;1.38;;
23716;SDS011;22094;52.130;5.598;2023-06-14T08:53:01;3.25;;;1.45;;
23716;SDS011;22094;52.130;5.598;2023-06-14T08:55:28;4.95;;;1.70;;
23716;SDS011;22094;52.130;5.598;2023-06-14T08:57:55;4.40;;;1.65;;
23716;SDS011;22094;52.130;5.598;2023-06-14T09:00:24;4.32;;;1.65;;
23716;SDS011;22094;52.130;5.598;2023-06-14T09:02:51;2.08;;;1.80;;
23716;SDS011;22094;52.130;5.598;2023-06-14T09:05:22;4.97;;;3.75;;
23716;SDS011;22094;52.130;5.598;2023-06-14T09:07:49;5.50;;;3.33;;
23716;SDS011;22094;52.130;5.598;2023-06-14T09:10:15;4.30;;;2.95;;
23716;SDS011;22094;52.130;5.598;2023-06-14T09:12:41;3.95;;;3.17;;
23716;SDS011;22094;52.130;5.598;2023-06-14T09:15:08;2.55;;;1.52;;
23716;SDS011;22094;52.130;5.598;2023-06-14T09:17:37;2.95;;;1.48;;
23716;SDS011;22094;52.130;5.598;2023-06-14T09:20:04;2.97;;;1.38;;
23716;SDS011;22094;52.130;5.598;2023-06-14T09:22:49;7.80;;;1.80;;
23716;SDS011;22094;52.130;5.598;2023-06-14T09:25:15;5.10;;;2.67;;
23716;SDS011;22094;52.130;5.598;2023-06-14T09:27:41;6.00;;;2.65;;
23716;SDS011;22094;52.130;5.598;2023-06-14T09:30:10;2.58;;;1.60;;
23716;SDS011;22094;52.130;5.598;2023-06-14T09:32:37;3.75;;;2.97;;
23716;SDS011;22094;52.130;5.598;2023-06-14T09:35:05;2.95;;;1.80;;
23716;SDS011;22094;52.130;5.598;2023-06-14T09:37:31;2.78;;;1.80;;
23716;SDS011;22094;52.130;5.598;2023-06-14T09:39:58;3.55;;;1.67;;
23716;SDS011;22094;52.130;5.598;2023-06-14T09:42:24;4.22;;;1.63;;
23716;SDS011;22094;52.130;5.598;2023-06-14T09:44:51;3.05;;;1.50;;
23716;SDS011;22094;52.130;5.598;2023-06-14T09:47:19;5.50;;;1.73;;
23716;SDS011;22094;52.130;5.598;2023-06-14T09:49:45;4.13;;;1.65;;
23716;SDS011;22094;52.130;5.598;2023-06-14T09:52:14;3.78;;;1.80;;
23716;SDS011;22094;52.130;5.598;2023-06-14T09:54:41;3.55;;;2.00;;
23716;SDS011;22094;52.130;5.598;2023-06-14T09:57:09;9.85;;;3.05;;
23716;SDS011;22094;52.130;5.598;2023-06-14T09:59:36;1.63;;;1.52;;
23716;SDS011;22094;52.130;5.598;2023-06-14T10:02:36;1.88;;;1.33;;
23716;SDS011;22094;52.130;5.598;2023-06-14T10:05:03;4.22;;;1.67;;
23716;SDS011;22094;52.130;5.598;2023-06-14T10:10:20;3.63;;;2.60;;
23716;SDS011;22094;52.130;5.598;2023-06-14T10:12:46;3.15;;;1.92;;
23716;SDS011;22094;52.130;5.598;2023-06-14T10:15:18;2.40;;;1.80;;
23716;SDS011;22094;52.130;5.598;2023-06-14T10:17:55;6.85;;;1.58;;
23716;SDS011;22094;52.130;5.598;2023-06-14T10:20:30;3.28;;;1.60;;
23716;SDS011;22094;52.130;5.598;2023-06-14T10:25:50;3.63;;;1.65;;
23716;SDS011;22094;52.130;5.598;2023-06-14T10:28:21;4.00;;;1.73;;
23716;SDS011;22094;52.130;5.598;2023-06-14T10:31:21;5.10;;;1.77;;
23716;SDS011;22094;52.130;5.598;2023-06-14T10:33:49;4.43;;;1.58;;
23716;SDS011;22094;52.130;5.598;2023-06-14T10:41:26;3.70;;;1.50;;
23716;SDS011;22094;52.130;5.598;2023-06-14T10:44:10;1.83;;;1.50;;
23716;SDS011;22094;52.130;5.598;2023-06-14T10:46:36;3.28;;;1.58;;
23716;SDS011;22094;52.130;5.598;2023-06-14T10:49:02;5.35;;;1.58;;
23716;SDS011;22094;52.130;5.598;2023-06-14T10:51:52;4.38;;;1.73;;
23716;SDS011;22094;52.130;5.598;2023-06-14T10:54:20;5.38;;;1.55;;
23716;SDS011;22094;52.130;5.598;2023-06-14T10:56:50;2.05;;;1.50;;
23716;SDS011;22094;52.130;5.598;2023-06-14T10:59:17;3.28;;;1.60;;
23716;SDS011;22094;52.130;5.598;2023-06-14T11:02:09;4.53;;;3.55;;
23716;SDS011;22094;52.130;5.598;2023-06-14T11:04:49;7.07;;;3.55;;
23716;SDS011;22094;52.130;5.598;2023-06-14T11:12:34;2.90;;;1.60;;
23716;SDS011;22094;52.130;5.598;2023-06-14T11:15:01;2.63;;;1.70;;
23716;SDS011;22094;52.130;5.598;2023-06-14T11:17:27;2.78;;;1.70;;
23716;SDS011;22094;52.130;5.598;2023-06-14T11:20:08;2.13;;;1.77;;
23716;SDS011;22094;52.130;5.598;2023-06-14T11:22:43;4.90;;;1.92;;
23716;SDS011;22094;52.130;5.598;2023-06-14T11:25:10;3.90;;;1.92;;
23716;SDS011;22094;52.130;5.598;2023-06-14T11:27:37;2.47;;;1.77;;
23716;SDS011;22094;52.130;5.598;2023-06-14T11:30:03;3.53;;;1.50;;
23716;SDS011;22094;52.130;5.598;2023-06-14T11:32:31;3.10;;;1.50;;
23716;SDS011;22094;52.130;5.598;2023-06-14T11:34:56;3.03;;;1.60;;
23716;SDS011;22094;52.130;5.598;2023-06-14T11:37:23;4.05;;;1.63;;
23716;SDS011;22094;52.130;5.598;2023-06-14T11:39:51;10.35;;;1.98;;
23716;SDS011;22094;52.130;5.598;2023-06-14T11:42:17;2.17;;;1.50;;
23716;SDS011;22094;52.130;5.598;2023-06-14T11:44:45;4.55;;;1.60;;
23716;SDS011;22094;52.130;5.598;2023-06-14T11:47:12;2.40;;;1.52;;
23716;SDS011;22094;52.130;5.598;2023-06-14T11:49:38;4.40;;;1.98;;
23716;SDS011;22094;52.130;5.598;2023-06-14T11:52:04;4.07;;;1.92;;
23716;SDS011;22094;52.130;5.598;2023-06-14T11:54:31;5.00;;;3.28;;
23716;SDS011;22094;52.130;5.598;2023-06-14T11:56:57;8.93;;;4.78;;
23716;SDS011;22094;52.130;5.598;2023-06-14T11:59:23;6.25;;;2.47;;
23716;SDS011;22094;52.130;5.598;2023-06-14T12:01:49;4.40;;;2.90;;
23716;SDS011;22094;52.130;5.598;2023-06-14T12:04:23;4.57;;;2.90;;
23716;SDS011;22094;52.130;5.598;2023-06-14T12:06:51;4.57;;;3.50;;
23716;SDS011;22094;52.130;5.598;2023-06-14T12:09:20;5.38;;;3.20;;
23716;SDS011;22094;52.130;5.598;2023-06-14T12:11:51;3.35;;;1.70;;
23716;SDS011;22094;52.130;5.598;2023-06-14T12:14:29;4.70;;;1.80;;
23716;SDS011;22094;52.130;5.598;2023-06-14T12:17:03;1.63;;;1.50;;
23716;SDS011;22094;52.130;5.598;2023-06-14T12:19:31;3.75;;;1.80;;
23716;SDS011;22094;52.130;5.598;2023-06-14T12:21:58;2.10;;;1.55;;
23716;SDS011;22094;52.130;5.598;2023-06-14T12:24:28;3.22;;;1.60;;
23716;SDS011;22094;52.130;5.598;2023-06-14T12:26:56;3.92;;;1.73;;
23716;SDS011;22094;52.130;5.598;2023-06-14T12:29:24;3.47;;;1.30;;
23716;SDS011;22094;52.130;5.598;2023-06-14T12:31:50;3.08;;;2.72;;
23716;SDS011;22094;52.130;5.598;2023-06-14T12:34:18;3.80;;;1.80;;
23716;SDS011;22094;52.130;5.598;2023-06-14T12:36:44;7.50;;;5.50;;
23716;SDS011;22094;52.130;5.598;2023-06-14T12:39:11;4.70;;;2.80;;
23716;SDS011;22094;52.130;5.598;2023-06-14T12:41:37;2.13;;;1.40;;
23716;SDS011;22094;52.130;5.598;2023-06-14T12:44:06;4.40;;;2.78;;
23716;SDS011;22094;52.130;5.598;2023-06-14T12:46:32;6.70;;;2.40;;
23716;SDS011;22094;52.130;5.598;2023-06-14T12:48:59;3.50;;;2.50;;
23716;SDS011;22094;52.130;5.598;2023-06-14T12:51:25;7.07;;;2.42;;
23716;SDS011;22094;52.130;5.598;2023-06-14T12:53:51;5.05;;;2.20;;
23716;SDS011;22094;52.130;5.598;2023-06-14T12:56:17;3.05;;;2.35;;
23716;SDS011;22094;52.130;5.598;2023-06-14T12:58:43;4.47;;;2.10;;
23716;SDS011;22094;52.130;5.598;2023-06-14T13:01:09;3.47;;;2.10;;
23716;SDS011;22094;52.130;5.598;2023-06-14T13:03:35;8.43;;;4.25;;
23716;SDS011;22094;52.130;5.598;2023-06-14T13:06:01;7.20;;;1.70;;
23716;SDS011;22094;52.130;5.598;2023-06-14T13:08:29;4.10;;;1.90;;
23716;SDS011;22094;52.130;5.598;2023-06-14T13:10:55;4.10;;;1.70;;
23716;SDS011;22094;52.130;5.598;2023-06-14T13:13:22;4.88;;;2.03;;
23716;SDS011;22094;52.130;5.598;2023-06-14T13:15:48;3.22;;;1.65;;
23716;SDS011;22094;52.130;5.598;2023-06-14T13:18:14;3.17;;;1.67;;
23716;SDS011;22094;52.130;5.598;2023-06-14T13:20:41;3.00;;;1.50;;
23716;SDS011;22094;52.130;5.598;2023-06-14T13:23:07;2.83;;;1.60;;
23716;SDS011;22094;52.130;5.598;2023-06-14T13:25:33;2.53;;;2.10;;
23716;SDS011;22094;52.130;5.598;2023-06-14T13:27:59;7.18;;;1.85;;
23716;SDS011;22094;52.130;5.598;2023-06-14T13:30:25;4.90;;;2.35;;
23716;SDS011;22094;52.130;5.598;2023-06-14T13:32:51;3.13;;;2.03;;
23716;SDS011;22094;52.130;5.598;2023-06-14T13:35:20;4.35;;;1.85;;
23716;SDS011;22094;52.130;5.598;2023-06-14T13:37:47;4.85;;;1.90;;
23716;SDS011;22094;52.130;5.598;2023-06-14T13:40:13;2.78;;;1.55;;
23716;SDS011;22094;52.130;5.598;2023-06-14T13:42:39;3.75;;;1.30;;
23716;SDS011;22094;52.130;5.598;2023-06-14T13:45:05;4.60;;;2.28;;
23716;SDS011;22094;52.130;5.598;2023-06-14T13:47:32;5.03;;;1.85;;
23716;SDS011;22094;52.130;5.598;2023-06-14T13:49:58;3.70;;;1.90;;
23716;SDS011;22094;52.130;5.598;2023-06-14T13:52:24;2.70;;;1.30;;
23716;SDS011;22094;52.130;5.598;2023-06-14T13:54:50;2.88;;;1.20;;
23716;SDS011;22094;52.130;5.598;2023-06-14T13:57:16;4.97;;;1.40;;
23716;SDS011;22094;52.130;5.598;2023-06-14T13:59:42;9.00;;;1.58;;
23716;SDS011;22094;52.130;5.598;2023-06-14T14:02:09;1.77;;;1.25;;
23716;SDS011;22094;52.130;5.598;2023-06-14T14:04:36;1.67;;;1.17;;
23716;SDS011;22094;52.130;5.598;2023-06-14T14:07:06;2.08;;;1.10;;
23716;SDS011;22094;52.130;5.598;2023-06-14T14:09:32;2.40;;;1.20;;
23716;SDS011;22094;52.130;5.598;2023-06-14T14:11:59;1.23;;;1.10;;
23716;SDS011;22094;52.130;5.598;2023-06-14T14:14:25;2.15;;;1.50;;
23716;SDS011;22094;52.130;5.598;2023-06-14T14:16:52;3.85;;;1.30;;
23716;SDS011;22094;52.130;5.598;2023-06-14T14:19:19;2.75;;;1.30;;
23716;SDS011;22094;52.130;5.598;2023-06-14T14:21:45;1.75;;;1.13;;
23716;SDS011;22094;52.130;5.598;2023-06-14T14:24:11;5.22;;;1.30;;
23716;SDS011;22094;52.130;5.598;2023-06-14T14:26:37;2.95;;;1.15;;
23716;SDS011;22094;52.130;5.598;2023-06-14T14:29:03;3.60;;;1.10;;
23716;SDS011;22094;52.130;5.598;2023-06-14T14:31:29;4.47;;;1.50;;
23716;SDS011;22094;52.130;5.598;2023-06-14T14:33:55;3.63;;;1.40;;
23716;SDS011;22094;52.130;5.598;2023-06-14T14:36:21;5.13;;;1.13;;
23716;SDS011;22094;52.130;5.598;2023-06-14T14:38:47;2.60;;;1.20;;
23716;SDS011;22094;52.130;5.598;2023-06-14T14:41:13;1.15;;;0.90;;
23716;SDS011;22094;52.130;5.598;2023-06-14T14:43:39;3.00;;;1.02;;
23716;SDS011;22094;52.130;5.598;2023-06-14T14:46:04;1.38;;;0.90;;
23716;SDS011;22094;52.130;5.598;2023-06-14T14:48:30;3.55;;;1.00;;
23716;SDS011;22094;52.130;5.598;2023-06-14T14:50:56;3.85;;;1.15;;
23716;SDS011;22094;52.130;5.598;2023-06-14T14:53:22;1.70;;;0.90;;
23716;SDS011;22094;52.130;5.598;2023-06-14T14:55:48;4.30;;;1.17;;
23716;SDS011;22094;52.130;5.598;2023-06-14T14:58:14;3.20;;;1.20;;
23716;SDS011;22094;52.130;5.598;2023-06-14T15:00:46;2.55;;;1.40;;
23716;SDS011;22094;52.130;5.598;2023-06-14T15:03:12;2.65;;;1.10;;
23716;SDS011;22094;52.130;5.598;2023-06-14T15:05:38;3.25;;;1.10;;
23716;SDS011;22094;52.130;5.598;2023-06-14T15:08:04;1.67;;;1.20;;
23716;SDS011;22094;52.130;5.598;2023-06-14T15:10:37;2.50;;;1.10;;
23716;SDS011;22094;52.130;5.598;2023-06-14T15:13:05;1.75;;;1.20;;